createdAt,value
2022-10-04T00:00:38.969Z,12.52
2022-10-04T00:03:11.124Z,8.85
2022-10-04T00:05:39.188Z,10.52
2022-10-04T00:08:35.236Z,10.68
2022-10-04T00:11:05.574Z,12.48
2022-10-04T00:13:32.713Z,10.05
2022-10-04T00:15:59.618Z,9.63
2022-10-04T00:18:31.794Z,7.82
2022-10-04T00:21:03.943Z,10.40
2022-10-04T00:23:36.725Z,8.50
2022-10-04T00:26:35.659Z,6.57
2022-10-04T00:29:35.249Z,12.43
2022-10-04T00:32:11.195Z,14.02
2022-10-04T00:34:51.195Z,8.27
2022-10-04T00:37:19.960Z,12.30
2022-10-04T00:39:56.110Z,13.20
2022-10-04T00:42:28.767Z,11.57
2022-10-04T00:45:10.683Z,15.68
2022-10-04T00:47:37.299Z,15.18
2022-10-04T00:50:15.425Z,11.10
2022-10-04T00:52:46.640Z,12.82
2022-10-04T00:55:40.924Z,8.57
2022-10-04T00:58:16.640Z,9.48
2022-10-04T01:00:43.690Z,13.05
2022-10-04T01:03:30.973Z,18.95
2022-10-04T01:06:01.425Z,14.10
2022-10-04T01:08:34.118Z,14.70
2022-10-04T01:11:10.112Z,12.27
2022-10-04T01:13:52.516Z,9.55
2022-10-04T01:16:29.929Z,13.02
2022-10-04T01:19:25.076Z,14.18
2022-10-04T01:22:12.663Z,15.73
2022-10-04T01:24:43.961Z,8.07
2022-10-04T01:27:35.638Z,12.05
2022-10-04T01:30:05.674Z,11.90
2022-10-04T01:32:32.410Z,11.10
2022-10-04T01:34:59.539Z,9.85
2022-10-04T01:37:27.619Z,12.18
2022-10-04T01:39:54.396Z,9.57
2022-10-04T01:42:21.745Z,14.18
2022-10-04T01:44:51.046Z,10.82
2022-10-04T01:47:24.033Z,7.07
2022-10-04T01:49:52.056Z,7.70
2022-10-04T01:52:36.477Z,8.35
2022-10-04T01:55:13.343Z,9.80
2022-10-04T01:57:47.950Z,10.82
2022-10-04T02:00:14.950Z,9.75
2022-10-04T02:02:55.301Z,7.75
2022-10-04T02:05:35.285Z,7.03
2022-10-04T02:08:08.465Z,12.95
2022-10-04T02:10:39.793Z,13.30
2022-10-04T02:13:12.833Z,6.60
2022-10-04T02:15:40.178Z,11.75
2022-10-04T02:18:12.354Z,10.35
2022-10-04T02:20:40.777Z,10.65
2022-10-04T02:23:07.974Z,21.40
2022-10-04T02:25:37.069Z,9.35
2022-10-04T02:28:04.653Z,6.68
2022-10-04T02:30:38.684Z,13.88
2022-10-04T02:33:05.883Z,9.63
2022-10-04T02:35:45.702Z,12.23
2022-10-04T02:38:23.612Z,7.75
2022-10-04T02:40:59.124Z,15.93
2022-10-04T02:43:36.400Z,10.77
2022-10-04T02:46:32.749Z,11.30
2022-10-04T02:49:01.614Z,11.65
2022-10-04T02:51:37.543Z,10.45
2022-10-04T02:54:14.850Z,9.98
2022-10-04T02:56:42.385Z,11.95
2022-10-04T02:59:16.589Z,13.07
2022-10-04T03:01:53.657Z,8.13
2022-10-04T03:04:23.447Z,5.45
2022-10-04T03:06:50.936Z,13.05
2022-10-04T03:09:20.136Z,13.35
2022-10-04T03:11:47.641Z,10.43
2022-10-04T03:14:18.490Z,11.73
2022-10-04T03:16:45.566Z,7.22
2022-10-04T03:19:13.735Z,11.68
2022-10-04T03:21:42.025Z,13.48
2022-10-04T03:24:10.541Z,9.35
2022-10-04T03:26:41.277Z,9.13
2022-10-04T03:29:10.456Z,14.18
2022-10-04T03:31:48.343Z,6.85
2022-10-04T03:34:25.680Z,12.55
2022-10-04T03:36:56.373Z,6.07
2022-10-04T03:39:33.651Z,9.85
2022-10-04T03:42:07.852Z,12.15
2022-10-04T03:44:35.038Z,12.10
2022-10-04T03:47:02.206Z,6.80
2022-10-04T03:49:35.190Z,11.70
2022-10-04T03:52:03.307Z,10.35
2022-10-04T03:54:33.560Z,10.20
2022-10-04T03:57:00.756Z,7.32
2022-10-04T03:59:28.445Z,12.90
2022-10-04T04:02:33.843Z,9.27
2022-10-04T04:05:25.264Z,4.57
2022-10-04T04:08:00.982Z,11.25
2022-10-04T04:10:30.580Z,7.32
2022-10-04T04:13:11.509Z,7.55
2022-10-04T04:15:42.518Z,8.68
2022-10-04T04:18:19.462Z,7.70
2022-10-04T04:20:46.304Z,10.60
2022-10-04T04:23:15.961Z,10.57
2022-10-04T04:25:47.893Z,6.95
2022-10-04T04:28:28.087Z,7.60
2022-10-04T04:31:04.303Z,9.65
2022-10-04T04:33:35.808Z,10.32
2022-10-04T04:36:07.118Z,9.32
2022-10-04T04:38:35.560Z,9.55
2022-10-04T04:41:10.928Z,7.85
2022-10-04T04:43:43.395Z,12.32
2022-10-04T04:46:26.529Z,13.65
2022-10-04T04:49:01.284Z,7.50
2022-10-04T04:51:28.315Z,9.20
2022-10-04T04:53:55.668Z,9.23
2022-10-04T04:56:29.632Z,11.95
2022-10-04T04:58:59.707Z,8.25
2022-10-04T05:01:33.466Z,8.63
2022-10-04T05:04:17.512Z,11.95
2022-10-04T05:06:46.557Z,8.85
2022-10-04T05:09:26.384Z,11.07
2022-10-04T05:11:55.883Z,8.23
2022-10-04T05:14:22.653Z,8.48
2022-10-04T05:16:52.317Z,8.35
2022-10-04T05:19:21.978Z,7.38
2022-10-04T05:21:50.584Z,10.90
2022-10-04T05:24:31.477Z,10.30
2022-10-04T05:27:02.080Z,13.60
2022-10-04T05:29:32.679Z,12.90
2022-10-04T05:32:16.207Z,13.70
2022-10-04T05:34:47.392Z,10.10
2022-10-04T05:37:24.372Z,10.93
2022-10-04T05:40:13.226Z,11.05
2022-10-04T05:42:45.563Z,11.68
2022-10-04T05:45:28.411Z,8.38
2022-10-04T05:47:57.368Z,12.77
2022-10-04T05:50:32.041Z,9.20
2022-10-04T05:53:24.833Z,10.93
2022-10-04T05:56:00.607Z,12.98
2022-10-04T05:58:42.549Z,13.93
2022-10-04T06:01:23.344Z,10.30
2022-10-04T06:04:09.465Z,9.32
2022-10-04T06:06:49.982Z,6.45
2022-10-04T06:09:37.856Z,5.15
2022-10-04T06:12:14.522Z,7.63
2022-10-04T06:14:58.632Z,9.55
2022-10-04T06:17:51.650Z,8.70
2022-10-04T06:20:50.133Z,8.32
2022-10-04T06:23:18.715Z,13.80
2022-10-04T06:25:59.307Z,9.95
2022-10-04T06:28:29.098Z,6.95
2022-10-04T06:31:28.190Z,13.38
2022-10-04T06:34:39.567Z,8.18
2022-10-04T06:37:23.083Z,6.18
2022-10-04T06:39:58.695Z,13.50
2022-10-04T06:42:34.668Z,10.80
2022-10-04T06:45:10.618Z,15.10
2022-10-04T06:48:15.068Z,10.80
2022-10-04T06:50:59.945Z,12.82
2022-10-04T06:53:30.680Z,7.03
2022-10-04T06:56:23.160Z,5.78
2022-10-04T06:59:23.861Z,8.85
2022-10-04T07:01:52.791Z,9.88
2022-10-04T07:05:06.876Z,20.10
2022-10-04T07:07:35.975Z,12.55
2022-10-04T07:10:21.049Z,12.68
2022-10-04T07:12:53.533Z,11.52
2022-10-04T07:15:24.340Z,9.60
2022-10-04T07:17:53.252Z,13.43
2022-10-04T07:20:27.364Z,10.90
2022-10-04T07:23:06.627Z,10.50
2022-10-04T07:25:49.517Z,11.73
2022-10-04T07:28:39.154Z,12.93
2022-10-04T07:31:14.685Z,13.07
2022-10-04T07:33:51.872Z,12.98
2022-10-04T07:36:23.014Z,10.35
2022-10-04T07:38:54.003Z,13.50
2022-10-04T07:41:28.818Z,14.98
2022-10-04T07:43:58.836Z,13.52
2022-10-04T07:46:37.721Z,11.55
2022-10-04T07:49:04.704Z,13.75
2022-10-04T07:51:42.448Z,11.95
2022-10-04T07:54:22.695Z,13.45
2022-10-04T07:57:15.560Z,9.95
2022-10-04T07:59:52.948Z,9.45
2022-10-04T08:02:31.227Z,11.75
2022-10-04T08:05:13.107Z,10.80
2022-10-04T08:08:00.191Z,11.23
2022-10-04T08:10:36.488Z,7.75
2022-10-04T08:13:12.763Z,7.97
2022-10-04T08:15:41.050Z,8.32
2022-10-04T08:18:26.614Z,9.15
2022-10-04T08:20:57.228Z,9.93
2022-10-04T08:23:39.792Z,15.65
2022-10-04T08:26:40.338Z,7.65
2022-10-04T08:29:44.514Z,11.25
2022-10-04T08:32:27.647Z,8.93
2022-10-04T08:35:29.357Z,8.50
2022-10-04T08:38:02.988Z,8.93
2022-10-04T08:40:33.751Z,7.00
2022-10-04T08:43:13.373Z,7.53
2022-10-04T08:45:49.390Z,9.75
2022-10-04T08:48:24.764Z,10.30
2022-10-04T08:51:29.206Z,8.02
2022-10-04T08:54:26.168Z,7.10
2022-10-04T08:57:16.442Z,8.18
2022-10-04T09:00:10.087Z,7.97
2022-10-04T09:02:42.900Z,7.30
2022-10-04T09:05:28.418Z,9.05
2022-10-04T09:08:28.616Z,7.32
2022-10-04T09:11:41.608Z,9.82
2022-10-04T09:14:46.784Z,8.23
2022-10-04T09:18:00.473Z,6.03
2022-10-04T09:20:59.200Z,6.57
2022-10-04T09:23:32.119Z,9.75
2022-10-04T09:26:12.676Z,7.93
2022-10-04T09:28:52.332Z,6.68
2022-10-04T09:31:40.790Z,7.88
2022-10-04T09:34:11.528Z,8.15
2022-10-04T09:36:40.757Z,10.77
2022-10-04T09:39:31.348Z,8.18
2022-10-04T09:42:01.046Z,7.15
2022-10-04T09:44:36.336Z,5.90
2022-10-04T09:47:12.490Z,7.95
2022-10-04T09:50:01.269Z,8.05
2022-10-04T09:52:56.656Z,7.47
2022-10-04T09:55:44.731Z,7.70
2022-10-04T09:58:51.879Z,5.35
2022-10-04T10:01:28.486Z,7.03
2022-10-04T10:04:33.092Z,5.38
2022-10-04T10:07:17.905Z,6.22
2022-10-04T10:10:06.261Z,6.10
2022-10-04T10:13:14.854Z,7.55
2022-10-04T10:15:58.380Z,11.43
2022-10-04T10:18:47.267Z,11.23
2022-10-04T10:21:26.557Z,4.57
2022-10-04T10:24:22.633Z,9.10
2022-10-04T10:26:54.797Z,7.38
2022-10-04T10:29:47.631Z,11.48
2022-10-04T10:32:59.919Z,9.30
2022-10-04T10:35:42.910Z,5.50
2022-10-04T10:38:31.430Z,9.55
2022-10-04T10:41:32.387Z,5.90
2022-10-04T10:44:20.681Z,8.48
2022-10-04T10:46:58.589Z,11.65
2022-10-04T10:50:15.822Z,11.38
2022-10-04T10:53:24.263Z,11.27
2022-10-04T10:56:29.926Z,5.45
2022-10-04T10:59:06.228Z,11.65
2022-10-04T11:02:05.829Z,11.70
2022-10-04T11:04:54.860Z,11.15
2022-10-04T11:07:27.673Z,8.88
2022-10-04T11:10:19.599Z,5.20
2022-10-04T11:13:18.923Z,7.72
2022-10-04T11:16:23.187Z,9.60
2022-10-04T11:19:17.689Z,14.40
2022-10-04T11:22:07.101Z,9.98
2022-10-04T11:24:34.885Z,4.95
2022-10-04T11:27:13.958Z,10.43
2022-10-04T11:29:44.015Z,11.02
2022-10-04T11:32:13.635Z,7.43
2022-10-04T11:35:37.296Z,6.03
2022-10-04T11:38:35.809Z,8.30
2022-10-04T11:41:04.121Z,9.82
2022-10-04T11:43:37.002Z,5.45
2022-10-04T11:46:21.498Z,5.97
2022-10-04T11:49:11.229Z,7.35
2022-10-04T11:52:17.760Z,8.00
2022-10-04T11:55:23.565Z,6.20
2022-10-04T11:58:20.424Z,6.80
2022-10-04T12:01:06.431Z,9.55
2022-10-04T12:04:10.388Z,5.63
2022-10-04T12:07:03.457Z,8.20
2022-10-04T12:09:42.376Z,8.98
2022-10-04T12:12:39.622Z,5.22
2022-10-04T12:15:36.311Z,9.15
2022-10-04T12:18:13.876Z,4.47
2022-10-04T12:21:19.055Z,8.60
2022-10-04T12:24:05.369Z,8.00
2022-10-04T12:26:50.835Z,10.80
2022-10-04T12:29:31.509Z,5.10
2022-10-04T12:32:00.433Z,3.53
2022-10-04T12:34:55.149Z,3.67
2022-10-04T12:37:49.105Z,5.93
2022-10-04T12:40:24.451Z,5.93
2022-10-04T12:43:16.802Z,7.05
2022-10-04T12:45:48.294Z,8.38
2022-10-04T12:48:28.738Z,6.20
2022-10-04T12:51:00.321Z,6.38
2022-10-04T12:53:34.751Z,6.45
2022-10-04T12:56:06.017Z,5.90
2022-10-04T12:58:57.397Z,9.65
2022-10-04T13:01:34.707Z,5.05
2022-10-04T13:04:13.025Z,9.65
2022-10-04T13:06:51.784Z,5.07
2022-10-04T13:09:30.979Z,6.28
2022-10-04T13:12:06.052Z,10.65
2022-10-04T13:14:38.781Z,7.32
2022-10-04T13:17:27.278Z,4.00
2022-10-04T13:20:21.329Z,4.30
2022-10-04T13:22:57.460Z,4.18
2022-10-04T13:26:05.741Z,6.32
2022-10-04T13:28:42.590Z,5.72
2022-10-04T13:31:49.387Z,7.57
2022-10-04T13:34:46.870Z,4.43
2022-10-04T13:37:53.726Z,6.32
2022-10-04T13:40:24.070Z,4.10
2022-10-04T13:42:53.789Z,2.83
2022-10-04T13:45:54.516Z,4.90
2022-10-04T13:48:27.312Z,4.13
2022-10-04T13:51:31.806Z,3.35
2022-10-04T13:54:42.405Z,3.40
2022-10-04T13:57:24.625Z,3.20
2022-10-04T14:00:06.904Z,6.13
2022-10-04T14:02:53.916Z,3.25
2022-10-04T14:05:39.346Z,3.70
2022-10-04T14:08:09.232Z,3.17
2022-10-04T14:10:53.336Z,5.47
2022-10-04T14:13:57.552Z,4.22
2022-10-04T14:16:49.121Z,2.30
2022-10-04T14:19:49.402Z,5.82
2022-10-04T14:22:37.466Z,2.78
2022-10-04T14:25:21.796Z,4.32
2022-10-04T14:28:14.838Z,2.97
2022-10-04T14:30:56.950Z,3.83
2022-10-04T14:33:45.697Z,6.50
2022-10-04T14:36:24.431Z,4.53
2022-10-04T14:38:54.170Z,3.42
2022-10-04T14:41:41.337Z,9.75
2022-10-04T14:44:27.033Z,3.90
2022-10-04T14:47:05.382Z,2.83
2022-10-04T14:50:09.723Z,5.75
2022-10-04T14:53:05.793Z,2.78
2022-10-04T14:56:15.752Z,4.40
2022-10-04T14:59:03.760Z,3.10
2022-10-04T15:01:33.170Z,5.55
2022-10-04T15:04:45.580Z,4.20
2022-10-04T15:07:27.557Z,2.70
2022-10-04T15:10:22.792Z,3.58
2022-10-04T15:13:10.478Z,7.68
2022-10-04T15:16:04.459Z,3.97
2022-10-04T15:19:06.625Z,5.32
2022-10-04T15:22:03.108Z,2.95
2022-10-04T15:24:39.670Z,4.55
2022-10-04T15:27:34.097Z,2.80
2022-10-04T15:30:34.933Z,1.85
2022-10-04T15:33:27.403Z,3.42
2022-10-04T15:35:57.121Z,2.83
2022-10-04T15:38:35.090Z,2.50
2022-10-04T15:41:06.850Z,3.63
2022-10-04T15:43:56.768Z,5.40
2022-10-04T15:46:38.676Z,2.78
2022-10-04T15:49:17.646Z,5.63
2022-10-04T15:51:53.426Z,2.20
2022-10-04T15:54:57.848Z,4.65
2022-10-04T15:57:56.502Z,2.33
2022-10-04T16:00:38.338Z,4.43
2022-10-04T16:03:28.405Z,5.20
2022-10-04T16:06:11.964Z,4.38
2022-10-04T16:08:57.056Z,4.35
2022-10-04T16:11:46.240Z,4.22
2022-10-04T16:14:22.046Z,5.70
2022-10-04T16:17:22.334Z,5.63
2022-10-04T16:20:00.303Z,2.03
2022-10-04T16:22:30.127Z,3.45
2022-10-04T16:25:25.539Z,3.50
2022-10-04T16:27:56.190Z,3.65
2022-10-04T16:30:30.970Z,2.08
2022-10-04T16:33:06.100Z,7.70
2022-10-04T16:35:42.384Z,6.43
2022-10-04T16:38:12.007Z,1.77
2022-10-04T16:40:50.885Z,3.97
2022-10-04T16:43:17.491Z,6.07
2022-10-04T16:46:09.926Z,7.25
2022-10-04T16:48:48.775Z,3.35
2022-10-04T16:51:18.976Z,2.85
2022-10-04T16:53:59.635Z,3.50
2022-10-04T16:56:28.777Z,4.65
2022-10-04T16:59:06.413Z,3.13
2022-10-04T17:01:42.178Z,3.92
2022-10-04T17:04:14.975Z,3.95
2022-10-04T17:06:56.868Z,4.07
2022-10-04T17:09:35.643Z,5.00
2022-10-04T17:12:08.621Z,6.35
2022-10-04T17:14:56.656Z,3.72
2022-10-04T17:17:33.601Z,7.30
2022-10-04T17:20:22.570Z,3.28
2022-10-04T17:22:59.279Z,4.95
2022-10-04T17:25:44.564Z,5.45
2022-10-04T17:28:29.260Z,3.35
2022-10-04T17:31:12.310Z,5.88
2022-10-04T17:34:20.510Z,3.25
2022-10-04T17:37:11.448Z,5.53
2022-10-04T17:39:47.167Z,3.55
2022-10-04T17:42:35.222Z,4.70
2022-10-04T17:45:14.887Z,5.55
2022-10-04T17:48:24.728Z,3.80
2022-10-04T17:51:36.240Z,7.60
2022-10-04T17:54:34.339Z,3.70
2022-10-04T17:57:04.006Z,7.78
2022-10-04T17:59:44.943Z,4.80
2022-10-04T18:02:23.274Z,5.22
2022-10-04T18:04:58.892Z,5.22
2022-10-04T18:07:37.093Z,8.95
2022-10-04T18:10:33.164Z,4.28
2022-10-04T18:13:05.028Z,5.00
2022-10-04T18:15:53.411Z,8.40
2022-10-04T18:18:21.810Z,6.18
2022-10-04T18:20:54.646Z,5.10
2022-10-04T18:23:28.388Z,6.68
2022-10-04T18:25:59.181Z,7.22
2022-10-04T18:28:26.159Z,5.97
2022-10-04T18:31:00.225Z,7.93
2022-10-04T18:33:47.261Z,6.20
2022-10-04T18:36:22.511Z,7.40
2022-10-04T18:39:04.132Z,5.05
2022-10-04T18:41:50.004Z,6.38
2022-10-04T18:44:18.156Z,7.45
2022-10-04T18:46:48.369Z,4.72
2022-10-04T18:49:18.182Z,7.03
2022-10-04T18:51:54.271Z,6.22
2022-10-04T18:54:52.840Z,5.38
2022-10-04T18:57:59.471Z,9.88
2022-10-04T19:00:50.965Z,6.75
2022-10-04T19:03:27.117Z,8.98
2022-10-04T19:05:59.854Z,7.63
2022-10-04T19:08:47.234Z,9.20
2022-10-04T19:11:23.618Z,7.15
2022-10-04T19:13:59.625Z,6.95
2022-10-04T19:16:58.330Z,9.50
2022-10-04T19:19:38.037Z,8.27
2022-10-04T19:22:18.988Z,10.25
2022-10-04T19:25:04.426Z,10.30
2022-10-04T19:27:45.450Z,8.15
2022-10-04T19:30:17.099Z,8.38
2022-10-04T19:33:14.781Z,8.60
2022-10-04T19:35:47.457Z,10.30
2022-10-04T19:38:20.486Z,10.88
2022-10-04T19:41:00.932Z,8.23
2022-10-04T19:43:46.497Z,8.65
2022-10-04T19:46:22.651Z,8.35
2022-10-04T19:48:51.331Z,9.75
2022-10-04T19:51:34.794Z,8.50
2022-10-04T19:54:16.185Z,10.32
2022-10-04T19:56:50.423Z,10.02
2022-10-04T19:59:31.525Z,8.57
2022-10-04T20:01:58.426Z,9.98
2022-10-04T20:04:35.623Z,7.05
2022-10-04T20:07:11.785Z,8.27
2022-10-04T20:09:41.488Z,11.90
2022-10-04T20:12:28.783Z,14.48
2022-10-04T20:15:17.531Z,6.97
2022-10-04T20:17:45.707Z,8.07
2022-10-04T20:20:39.332Z,6.07
2022-10-04T20:23:07.831Z,8.48
2022-10-04T20:25:43.986Z,7.22
2022-10-04T20:28:38.813Z,8.82
2022-10-04T20:31:26.452Z,7.20
2022-10-04T20:33:53.648Z,7.40
2022-10-04T20:36:20.639Z,7.72
2022-10-04T20:38:59.717Z,9.50
2022-10-04T20:41:29.719Z,8.40
2022-10-04T20:44:01.741Z,13.88
2022-10-04T20:46:38.372Z,7.95
2022-10-04T20:49:14.957Z,9.93
2022-10-04T20:51:49.203Z,8.98
2022-10-04T20:54:20.419Z,8.80
2022-10-04T20:56:55.211Z,7.47
2022-10-04T20:59:24.063Z,7.65
2022-10-04T21:02:02.756Z,7.72
2022-10-04T21:04:30.446Z,7.25
2022-10-04T21:07:02.484Z,8.80
2022-10-04T21:09:31.251Z,7.60
2022-10-04T21:11:58.613Z,18.20
2022-10-04T21:14:25.358Z,12.20
2022-10-04T21:16:58.572Z,15.23
2022-10-04T21:19:48.636Z,16.17
2022-10-04T21:22:18.394Z,18.77
2022-10-04T21:24:48.257Z,16.02
2022-10-04T21:27:40.118Z,14.75
2022-10-04T21:30:14.837Z,16.08
2022-10-04T21:32:41.538Z,11.43
2022-10-04T21:35:08.989Z,10.80
2022-10-04T21:37:36.076Z,10.15
2022-10-04T21:40:03.966Z,9.85
2022-10-04T21:42:30.641Z,7.22
2022-10-04T21:44:57.599Z,6.80
2022-10-04T21:47:24.408Z,13.38
2022-10-04T21:49:52.220Z,8.35
2022-10-04T21:52:19.249Z,7.85
2022-10-04T21:54:46.148Z,6.75
2022-10-04T21:57:13.535Z,10.70
2022-10-04T21:59:40.245Z,10.18
2022-10-04T22:02:07.949Z,7.93
2022-10-04T22:04:34.712Z,6.80
2022-10-04T22:07:01.463Z,6.05
2022-10-04T22:09:28.855Z,9.57
2022-10-04T22:11:55.537Z,10.07
2022-10-04T22:14:22.172Z,6.43
2022-10-04T22:16:49.564Z,7.53
2022-10-04T22:19:16.681Z,6.15
2022-10-04T22:21:43.374Z,6.47
2022-10-04T22:24:18.018Z,6.05
2022-10-04T22:26:45.513Z,8.40
2022-10-04T22:29:14.141Z,7.47
2022-10-04T22:31:44.207Z,5.43
2022-10-04T22:34:16.933Z,6.45
2022-10-04T22:36:44.221Z,10.02
2022-10-04T22:39:14.901Z,7.88
2022-10-04T22:41:52.783Z,5.45
2022-10-04T22:44:29.011Z,6.00
2022-10-04T22:46:57.791Z,8.70
2022-10-04T22:49:46.096Z,8.68
2022-10-04T22:52:20.541Z,4.60
2022-10-04T22:54:49.625Z,4.88
2022-10-04T22:57:17.818Z,5.88
2022-10-04T22:59:47.188Z,4.97
2022-10-04T23:02:26.930Z,5.88
2022-10-04T23:04:59.448Z,6.63
2022-10-04T23:07:26.244Z,5.70
2022-10-04T23:09:53.234Z,6.13
2022-10-04T23:12:19.926Z,5.82
2022-10-04T23:14:46.652Z,4.60
2022-10-04T23:17:23.978Z,6.15
2022-10-04T23:20:09.492Z,8.30
2022-10-04T23:22:36.239Z,6.50
2022-10-04T23:25:06.303Z,6.25
2022-10-04T23:27:34.200Z,7.13
2022-10-04T23:30:04.371Z,8.07
2022-10-04T23:32:32.200Z,5.95
2022-10-04T23:35:00.455Z,5.03
2022-10-04T23:37:31.359Z,4.85
2022-10-04T23:39:58.084Z,7.72
2022-10-04T23:42:32.022Z,4.53
2022-10-04T23:45:00.083Z,4.82
2022-10-04T23:47:34.518Z,4.72
2022-10-04T23:50:01.764Z,6.47
2022-10-04T23:52:36.070Z,5.38
2022-10-04T23:55:03.168Z,12.23
2022-10-04T23:57:31.214Z,4.45
2022-10-04T23:59:59.723Z,7.28
